Weather at Chiriaco Summit Airport

Public forecast

Using degrees Fahrenheit for public forecast. Weather courtesy of forecast.io.

Closest aviation weather report (METAR) to Chiriaco Summit Airport

Closest report is Jacqueline Cochran Regional Airport, 22.6 nm (41.8 km) W. Retrieved 2021/10/16 15:52 UTC (1 hour ago):

KTRM 161552Z AUTO 36004KT 10SM CLR 22/M02 A3004 RMK AO2 SLP175 T02171017

Closest aviation forecast (TAF) to Chiriaco Summit Airport

Closest forecast is Jacqueline Cochran Regional Airport, 22.6 nm (41.8 km) W. Retrieved 2021/10/16 12:22 UTC (5 hours ago):

TAF KTRM 161120Z 1612/1712 35006KT P6SM SKC FM162000 16006KT P6SM SKC FM170300 33004KT P6SM SKC